Time;durP1;ratioP1;P1;durP2;ratioP2;P2;SDS_P1;SDS_P2;PMS_P1;PMS_P2;Temp;Humidity;BMP_temperature;BMP_pressure;BME280_temperature;BME280_humidity;BME280_pressure;Samples;Min_cycle;Max_cycle;Signal;HPM_P1;HPM_P2
2021/12/29 00:02:12;;;;;;;10.13;4.53;;;9.40;99.90;;;;;;5115054;28;20034;-76
2021/12/29 00:04:38;;;;;;;14.67;4.50;;;9.40;99.90;;;;;;5097178;28;20118;-80
2021/12/29 00:07:03;;;;;;;14.00;5.10;;;9.40;99.90;;;;;;5113659;28;20027;-76
2021/12/29 00:09:32;;;;;;;12.53;5.20;;;9.40;99.90;;;;;;5113075;28;20540;-76
2021/12/29 00:11:58;;;;;;;14.20;5.17;;;9.40;99.90;;;;;;5113530;28;20114;-76
2021/12/29 00:14:23;;;;;;;12.80;4.70;;;9.50;99.90;;;;;;5113069;28;20051;-76
2021/12/29 00:16:49;;;;;;;12.03;4.63;;;9.50;99.90;;;;;;5114119;28;20020;-77
2021/12/29 00:19:15;;;;;;;9.47;4.07;;;9.50;99.90;;;;;;5112995;28;20031;-78
2021/12/29 00:21:41;;;;;;;12.10;3.43;;;9.50;99.90;;;;;;5096403;28;20080;-78
2021/12/29 00:24:06;;;;;;;10.70;3.47;;;9.50;99.90;;;;;;5114542;28;20059;-84
2021/12/29 00:26:33;;;;;;;8.60;3.07;;;9.50;99.90;;;;;;5113099;28;20030;-78
2021/12/29 00:29:00;;;;;;;7.57;2.77;;;9.50;99.90;;;;;;5114518;28;20418;-77
2021/12/29 00:31:32;;;;;;;8.67;2.97;;;9.50;99.90;;;;;;5112597;28;20419;-76
2021/12/29 00:33:58;;;;;;;7.00;2.40;;;9.60;99.90;;;;;;5114219;28;20532;-76
2021/12/29 00:36:24;;;;;;;6.43;3.07;;;9.50;99.90;;;;;;5113150;28;20028;-76
2021/12/29 00:38:49;;;;;;;8.37;3.63;;;9.50;99.90;;;;;;5095920;28;20569;-76
2021/12/29 00:41:16;;;;;;;6.83;2.80;;;9.50;99.90;;;;;;5114168;28;20077;-77
2021/12/29 00:43:44;;;;;;;7.20;2.97;;;9.50;99.90;;;;;;5113882;28;20058;-77
2021/12/29 00:46:12;;;;;;;7.23;3.27;;;9.40;99.90;;;;;;5114209;28;20039;-76
2021/12/29 00:48:41;;;;;;;8.90;4.40;;;9.40;99.90;;;;;;5113925;28;20059;-76
2021/12/29 00:51:07;;;;;;;9.30;4.63;;;9.40;99.90;;;;;;5112541;28;20024;-77
2021/12/29 00:53:33;;;;;;;10.20;4.30;;;9.50;99.90;;;;;;5113005;28;20084;-77
2021/12/29 00:55:59;;;;;;;11.97;4.73;;;9.50;99.90;;;;;;5113256;28;20024;-77
2021/12/29 00:58:25;;;;;;;11.73;4.93;;;9.40;99.90;;;;;;5114394;28;20056;-77
2021/12/29 01:00:51;;;;;;;12.47;5.67;;;9.40;99.90;;;;;;5113192;28;20063;-77
2021/12/29 01:03:16;;;;;;;12.87;5.93;;;9.50;99.90;;;;;;5116722;28;20027;-76
2021/12/29 01:05:43;;;;;;;11.63;5.73;;;9.40;99.90;;;;;;5117975;28;20058;-77
2021/12/29 01:08:10;;;;;;;13.13;5.63;;;9.50;99.90;;;;;;5118453;28;20028;-77
2021/12/29 01:10:37;;;;;;;12.13;5.40;;;9.50;99.90;;;;;;5117760;28;20107;-77
2021/12/29 01:13:03;;;;;;;11.20;5.93;;;9.40;99.90;;;;;;5116456;28;20032;-76
2021/12/29 01:15:34;;;;;;;11.23;5.50;;;9.50;99.90;;;;;;5116573;28;20111;-81
2021/12/29 01:18:04;;;;;;;13.27;5.87;;;9.50;99.90;;;;;;5116415;28;20060;-77
2021/12/29 01:20:30;;;;;;;15.40;4.50;;;9.50;99.90;;;;;;5117846;28;20030;-77
2021/12/29 01:22:59;;;;;;;11.97;4.97;;;9.50;99.90;;;;;;5117537;28;20032;-76
2021/12/29 01:25:26;;;;;;;14.13;5.40;;;9.40;99.90;;;;;;5116223;28;20028;-77
2021/12/29 01:27:51;;;;;;;11.10;4.10;;;9.50;99.90;;;;;;5116443;28;20031;-77
2021/12/29 01:30:17;;;;;;;8.60;3.80;;;9.50;99.90;;;;;;5116246;28;20351;-76
2021/12/29 01:32:43;;;;;;;13.37;4.70;;;9.50;99.90;;;;;;5117062;28;20545;-77
2021/12/29 01:35:11;;;;;;;14.50;4.60;;;9.50;99.90;;;;;;5116299;28;20435;-81
2021/12/29 01:37:37;;;;;;;16.13;4.90;;;9.50;99.90;;;;;;5117736;28;20368;-77
2021/12/29 01:40:06;;;;;;;15.07;5.47;;;9.50;99.90;;;;;;5117492;28;20026;-78
2021/12/29 01:42:32;;;;;;;13.17;5.77;;;9.50;99.90;;;;;;5118037;28;20043;-78
2021/12/29 01:44:57;;;;;;;15.37;6.17;;;9.50;99.90;;;;;;5118480;28;20483;-77
2021/12/29 01:47:28;;;;;;;15.50;6.03;;;9.50;99.90;;;;;;5117735;28;20036;-76
2021/12/29 01:49:55;;;;;;;17.33;7.30;;;9.50;99.90;;;;;;5117035;28;20020;-78
2021/12/29 01:52:26;;;;;;;18.53;7.90;;;9.50;99.90;;;;;;5116429;28;20024;-78
2021/12/29 01:54:52;;;;;;;21.87;8.37;;;9.50;99.90;;;;;;5117464;28;20084;-80
2021/12/29 01:57:18;;;;;;;18.13;7.50;;;9.50;99.90;;;;;;5117727;28;20098;-77
2021/12/29 01:59:44;;;;;;;21.17;7.53;;;9.50;99.90;;;;;;5115668;28;20030;-77
2021/12/29 02:02:14;;;;;;;15.33;7.30;;;9.50;99.90;;;;;;5115657;28;20475;-77
2021/12/29 02:04:46;;;;;;;13.77;6.83;;;9.50;99.90;;;;;;5117255;28;20039;-76
2021/12/29 02:07:12;;;;;;;14.93;7.20;;;9.50;99.90;;;;;;5116754;28;20046;-77
2021/12/29 02:09:39;;;;;;;18.50;7.93;;;9.50;99.90;;;;;;5117206;28;20482;-77
2021/12/29 02:12:06;;;;;;;19.27;8.67;;;9.50;99.90;;;;;;5117212;28;20027;-76
2021/12/29 02:14:33;;;;;;;23.40;8.47;;;9.60;99.90;;;;;;5114922;28;20036;-77
2021/12/29 02:16:59;;;;;;;16.37;7.17;;;9.60;99.90;;;;;;5116417;28;20024;-77
2021/12/29 02:19:26;;;;;;;19.97;7.67;;;9.50;99.90;;;;;;5115331;28;20055;-77
2021/12/29 02:22:12;;;;;;;15.07;6.40;;;9.60;99.90;;;;;;5098701;28;20032;-77
2021/12/29 02:24:43;;;;;;;19.13;7.07;;;9.50;99.90;;;;;;5114748;28;20031;-77
2021/12/29 02:27:12;;;;;;;18.77;7.10;;;9.70;99.90;;;;;;5116505;28;20032;-77
2021/12/29 02:29:40;;;;;;;13.23;6.17;;;9.60;99.90;;;;;;5116492;28;20027;-76
2021/12/29 02:32:06;;;;;;;14.87;5.90;;;9.50;99.90;;;;;;5115419;28;20054;-77
2021/12/29 02:34:32;;;;;;;14.97;6.17;;;9.60;99.90;;;;;;5115219;28;20102;-77
2021/12/29 02:37:01;;;;;;;15.93;6.30;;;9.70;99.90;;;;;;5098156;28;20050;-76
2021/12/29 02:39:29;;;;;;;17.63;6.97;;;9.60;99.90;;;;;;5098307;28;20468;-75
2021/12/29 02:41:55;;;;;;;17.77;6.57;;;9.50;99.90;;;;;;5114990;28;20031;-75
2021/12/29 02:44:25;;;;;;;16.90;6.90;;;9.50;99.90;;;;;;5115925;28;20050;-75
2021/12/29 02:46:52;;;;;;;12.53;5.83;;;9.60;99.90;;;;;;5116258;28;20024;-74
2021/12/29 02:49:17;;;;;;;15.03;5.93;;;9.60;99.90;;;;;;5114600;28;20039;-75
2021/12/29 02:51:43;;;;;;;13.47;6.13;;;9.50;99.90;;;;;;5114118;28;20379;-75
2021/12/29 02:54:10;;;;;;;17.83;4.63;;;9.60;99.90;;;;;;5115737;28;20020;-75
2021/12/29 02:56:35;;;;;;;11.20;4.50;;;9.50;99.90;;;;;;5114735;28;20035;-74
2021/12/29 02:59:01;;;;;;;11.33;4.60;;;9.60;99.90;;;;;;5115781;28;20387;-75
2021/12/29 03:01:28;;;;;;;13.87;4.50;;;9.60;99.90;;;;;;5116018;28;20019;-74
2021/12/29 03:03:55;;;;;;;12.33;4.20;;;9.60;99.90;;;;;;5115918;28;20035;-74
2021/12/29 03:06:21;;;;;;;11.77;4.70;;;9.50;99.90;;;;;;5115418;28;20386;-74
2021/12/29 03:08:47;;;;;;;13.13;5.50;;;9.60;99.90;;;;;;5115659;28;20444;-74
2021/12/29 03:11:13;;;;;;;10.50;4.20;;;9.60;99.90;;;;;;5097619;28;20060;-74
2021/12/29 03:13:40;;;;;;;14.63;3.67;;;9.70;99.90;;;;;;5115347;28;20031;-74
2021/12/29 03:16:07;;;;;;;12.23;4.30;;;9.50;99.90;;;;;;5114474;28;20099;-76
2021/12/29 03:18:32;;;;;;;16.13;4.30;;;9.60;99.90;;;;;;5114239;28;20028;-74
2021/12/29 03:20:59;;;;;;;14.70;4.70;;;9.60;99.90;;;;;;5113956;28;20046;-75
2021/12/29 03:23:24;;;;;;;12.90;4.23;;;9.60;99.90;;;;;;5096727;28;20031;-74
2021/12/29 03:25:51;;;;;;;16.50;4.30;;;9.60;99.90;;;;;;5114003;28;20023;-75
2021/12/29 03:28:20;;;;;;;14.03;4.50;;;9.60;99.90;;;;;;5113677;28;20111;-74
2021/12/29 03:30:50;;;;;;;17.67;5.80;;;9.50;99.90;;;;;;5115105;28;20387;-75
2021/12/29 03:33:17;;;;;;;22.13;7.13;;;9.50;99.90;;;;;;5115051;28;20043;-75
2021/12/29 03:35:45;;;;;;;18.90;7.40;;;9.50;99.90;;;;;;5113710;28;20024;-75
2021/12/29 03:38:14;;;;;;;18.50;7.50;;;9.50;99.90;;;;;;5115011;28;20028;-75
2021/12/29 03:40:41;;;;;;;25.60;7.30;;;9.60;99.90;;;;;;5113392;28;20028;-75
2021/12/29 03:43:09;;;;;;;26.00;7.70;;;9.50;99.90;;;;;;5113906;28;20032;-75
2021/12/29 03:45:37;;;;;;;20.67;7.40;;;9.50;99.90;;;;;;5113909;28;20062;-75
2021/12/29 03:48:07;;;;;;;18.80;6.37;;;9.50;99.90;;;;;;5114513;28;20111;-74
2021/12/29 03:50:33;;;;;;;15.53;6.80;;;9.50;99.90;;;;;;5113600;28;20043;-74
2021/12/29 03:52:58;;;;;;;16.23;6.67;;;9.50;99.90;;;;;;5113244;28;20054;-75
2021/12/29 03:55:24;;;;;;;20.77;7.33;;;9.50;99.90;;;;;;5079603;28;20464;-74
2021/12/29 03:57:50;;;;;;;21.90;6.97;;;9.50;99.90;;;;;;5096263;28;20027;-75
2021/12/29 04:00:18;;;;;;;23.73;7.53;;;9.60;99.90;;;;;;5109988;28;20080;-74
2021/12/29 04:02:44;;;;;;;21.37;7.47;;;9.50;99.90;;;;;;5093574;28;20043;-75
2021/12/29 04:05:14;;;;;;;22.40;6.93;;;9.50;99.90;;;;;;5093682;28;20066;-75
2021/12/29 04:07:40;;;;;;;14.73;6.37;;;9.40;99.90;;;;;;5094309;28;20024;-75
2021/12/29 04:10:07;;;;;;;26.63;6.20;;;9.40;99.90;;;;;;5093922;28;20161;-75
2021/12/29 04:12:32;;;;;;;16.80;6.07;;;9.50;99.90;;;;;;5092908;28;20035;-75
2021/12/29 04:14:58;;;;;;;18.83;5.37;;;9.50;99.90;;;;;;5093872;28;20032;-75
2021/12/29 04:17:29;;;;;;;15.53;5.73;;;9.50;99.90;;;;;;5094009;28;20032;-75
2021/12/29 04:22:40;;;;;;;14.67;5.13;;;9.40;99.90;;;;;;5094081;28;20051;-74
2021/12/29 04:25:06;;;;;;;15.43;6.03;;;9.50;99.90;;;;;;5092453;28;20032;-74
2021/12/29 04:27:32;;;;;;;14.30;5.77;;;9.50;99.90;;;;;;5094041;28;20028;-74
2021/12/29 04:29:58;;;;;;;16.90;6.40;;;9.50;99.90;;;;;;5093762;28;20371;-74
2021/12/29 04:32:24;;;;;;;21.23;6.13;;;9.40;99.90;;;;;;5075348;28;20052;-74
2021/12/29 04:34:49;;;;;;;23.30;5.20;;;9.40;99.90;;;;;;5093567;28;20434;-74
2021/12/29 04:37:15;;;;;;;12.53;5.10;;;9.40;99.90;;;;;;5093026;28;20063;-74
2021/12/29 04:39:41;;;;;;;17.63;5.07;;;9.40;99.90;;;;;;5092145;28;20039;-74
2021/12/29 04:42:07;;;;;;;17.40;5.30;;;9.40;99.90;;;;;;5093680;28;20024;-74
2021/12/29 04:44:32;;;;;;;15.67;5.10;;;9.40;99.90;;;;;;5075585;28;20365;-74
2021/12/29 04:46:58;;;;;;;10.80;4.53;;;9.40;99.90;;;;;;5092451;28;20073;-75
2021/12/29 04:49:28;;;;;;;14.90;5.10;;;9.30;99.90;;;;;;5093560;28;20029;-74
2021/12/29 04:52:03;;;;;;;12.40;5.17;;;9.40;99.90;;;;;;5092410;28;20032;-74
2021/12/29 04:54:30;;;;;;;20.07;6.40;;;9.40;99.90;;;;;;5092395;28;20503;-74
2021/12/29 04:56:56;;;;;;;20.47;7.20;;;9.40;99.90;;;;;;5092426;28;20058;-74
2021/12/29 04:59:26;;;;;;;14.30;6.93;;;9.50;99.90;;;;;;5093598;28;20099;-75
2021/12/29 05:01:52;;;;;;;17.87;7.17;;;9.40;99.90;;;;;;5093234;28;20050;-75
2021/12/29 05:04:46;;;;;;;14.27;6.77;;;9.40;99.90;;;;;;5093518;28;20032;-74
2021/12/29 05:09:52;;;;;;;16.77;7.85;;;9.40;99.90;;;;;;5094676;28;20040;-75
2021/12/29 05:12:17;;;;;;;17.23;7.47;;;9.40;99.90;;;;;;5093264;28;20371;-74
2021/12/29 05:14:43;;;;;;;14.23;7.03;;;9.40;99.90;;;;;;5109144;28;20027;-74
2021/12/29 05:17:09;;;;;;;17.30;6.37;;;9.40;99.90;;;;;;5113437;28;20024;-74
2021/12/29 05:19:35;;;;;;;15.57;6.63;;;9.40;99.90;;;;;;5078542;28;20039;-74
2021/12/29 05:22:01;;;;;;;16.20;6.50;;;9.40;99.90;;;;;;5093043;28;20028;-74
2021/12/29 05:24:26;;;;;;;13.93;6.17;;;9.40;99.90;;;;;;5097339;28;20035;-74
2021/12/29 05:26:52;;;;;;;13.63;7.10;;;9.40;99.90;;;;;;5108523;28;20532;-74
2021/12/29 05:29:17;;;;;;;13.73;6.20;;;9.40;99.90;;;;;;5091908;28;20344;-74
2021/12/29 05:31:43;;;;;;;16.37;7.07;;;9.40;99.90;;;;;;5091114;28;20094;-74
2021/12/29 05:34:09;;;;;;;12.33;7.13;;;9.40;99.90;;;;;;5091919;28;20020;-74
2021/12/29 05:36:34;;;;;;;15.60;7.80;;;9.40;99.90;;;;;;5091914;28;20019;-75
2021/12/29 05:39:00;;;;;;;17.40;7.90;;;9.40;99.90;;;;;;5093276;28;20024;-74
2021/12/29 05:41:26;;;;;;;16.43;7.53;;;9.40;99.90;;;;;;5091984;28;20028;-73
2021/12/29 05:43:52;;;;;;;17.70;8.30;;;9.40;99.90;;;;;;5091936;28;20480;-74
2021/12/29 05:46:17;;;;;;;15.87;8.20;;;9.40;99.90;;;;;;5092870;28;20024;-74
2021/12/29 05:48:43;;;;;;;18.13;8.03;;;9.40;99.90;;;;;;5093671;28;20028;-75
2021/12/29 05:51:12;;;;;;;17.17;8.33;;;9.40;99.90;;;;;;5112532;28;20020;-74
2021/12/29 05:53:39;;;;;;;18.93;8.60;;;9.40;99.90;;;;;;5112584;28;20093;-74
2021/12/29 05:56:05;;;;;;;14.93;9.23;;;9.40;99.90;;;;;;5096745;28;20050;-74
2021/12/29 05:58:30;;;;;;;15.20;8.30;;;9.40;99.90;;;;;;5096692;28;20055;-74
2021/12/29 06:00:56;;;;;;;15.90;8.13;;;9.40;99.90;;;;;;5096742;28;20099;-75
2021/12/29 06:03:22;;;;;;;11.00;7.07;;;9.50;99.90;;;;;;5095570;28;20139;-76
2021/12/29 06:05:48;;;;;;;11.90;7.83;;;9.40;99.90;;;;;;5095226;28;20060;-75
2021/12/29 06:08:14;;;;;;;13.43;7.57;;;9.40;99.90;;;;;;5095054;28;20154;-74
2021/12/29 06:10:40;;;;;;;15.10;8.20;;;9.40;99.90;;;;;;5096494;28;20343;-74
2021/12/29 06:13:06;;;;;;;12.67;7.27;;;9.40;99.90;;;;;;5095189;28;20111;-75
2021/12/29 06:15:32;;;;;;;11.00;7.27;;;9.40;99.90;;;;;;5111842;28;20059;-74
2021/12/29 06:17:58;;;;;;;15.30;7.03;;;9.50;99.90;;;;;;5096309;28;20376;-74
2021/12/29 06:20:24;;;;;;;12.47;7.30;;;9.40;99.90;;;;;;5096247;28;20035;-74
2021/12/29 06:22:49;;;;;;;14.80;8.03;;;9.40;99.90;;;;;;5094669;28;20028;-74
2021/12/29 06:25:17;;;;;;;17.73;8.43;;;9.40;99.90;;;;;;5111582;28;20030;-75
2021/12/29 06:27:43;;;;;;;17.27;8.17;;;9.50;99.90;;;;;;5094710;28;20480;-75
2021/12/29 06:30:11;;;;;;;12.70;6.87;;;9.40;99.90;;;;;;5102578;28;20026;-75
2021/12/29 06:32:38;;;;;;;13.97;8.13;;;9.40;99.90;;;;;;5114149;28;20031;-75
2021/12/29 06:35:06;;;;;;;14.17;7.83;;;9.50;99.90;;;;;;5115490;28;20032;-74
2021/12/29 06:37:32;;;;;;;18.70;8.60;;;9.40;99.90;;;;;;5115593;28;20031;-75
2021/12/29 06:39:58;;;;;;;14.47;8.10;;;9.40;99.90;;;;;;5116066;28;20100;-74
2021/12/29 06:42:24;;;;;;;15.30;7.83;;;9.50;99.90;;;;;;5115955;28;20027;-74
2021/12/29 06:44:50;;;;;;;14.53;7.50;;;9.40;99.90;;;;;;5115819;28;20035;-75
2021/12/29 06:47:16;;;;;;;17.77;8.20;;;9.40;99.90;;;;;;5116143;28;20041;-74
2021/12/29 06:49:42;;;;;;;20.10;8.47;;;9.40;99.90;;;;;;5114527;28;20093;-75
2021/12/29 06:52:09;;;;;;;19.90;9.13;;;9.30;99.90;;;;;;5115943;28;20035;-75
2021/12/29 06:54:36;;;;;;;20.70;10.73;;;9.40;99.90;;;;;;5115822;28;20024;-74
2021/12/29 06:57:02;;;;;;;20.67;9.30;;;9.40;99.90;;;;;;5097703;28;20096;-73
2021/12/29 06:59:28;;;;;;;17.57;9.40;;;9.30;99.90;;;;;;5115398;28;20036;-74
2021/12/29 07:01:54;;;;;;;21.80;9.07;;;9.40;99.90;;;;;;5097774;28;20036;-74
2021/12/29 07:04:19;;;;;;;23.30;10.20;;;9.30;99.90;;;;;;5097855;28;20035;-73
2021/12/29 07:06:45;;;;;;;20.63;11.10;;;9.30;99.90;;;;;;5114206;28;20031;-74
2021/12/29 07:09:11;;;;;;;22.73;10.13;;;9.30;99.90;;;;;;5079372;28;20181;-74
2021/12/29 07:11:37;;;;;;;21.77;11.03;;;9.30;99.90;;;;;;5097029;28;20024;-73
2021/12/29 07:14:09;;;;;;;19.63;10.17;;;9.30;99.90;;;;;;5113960;28;20028;-73
2021/12/29 07:16:34;;;;;;;24.97;10.27;;;9.30;99.90;;;;;;5114746;28;20020;-73
2021/12/29 07:19:00;;;;;;;18.00;9.93;;;9.30;99.90;;;;;;5113704;28;20490;-74
2021/12/29 07:21:25;;;;;;;26.57;10.07;;;9.30;99.90;;;;;;5113747;28;20404;-74
2021/12/29 07:23:53;;;;;;;21.13;10.10;;;9.30;99.90;;;;;;5096317;28;20024;-74
2021/12/29 07:26:20;;;;;;;20.60;10.90;;;9.30;99.90;;;;;;5087670;28;20036;-74
2021/12/29 07:28:45;;;;;;;18.87;10.27;;;9.30;99.90;;;;;;5079587;28;20044;-73
2021/12/29 07:31:11;;;;;;;22.90;10.97;;;9.30;99.90;;;;;;5109744;28;20149;-73
2021/12/29 07:33:36;;;;;;;21.43;11.43;;;9.30;99.90;;;;;;5096204;28;20047;-73
2021/12/29 07:36:03;;;;;;;25.97;10.20;;;9.30;99.90;;;;;;5096527;28;20097;-73
2021/12/29 07:38:28;;;;;;;23.63;9.73;;;9.30;99.90;;;;;;5113162;28;20028;-73
2021/12/29 07:40:54;;;;;;;20.87;10.50;;;9.30;99.90;;;;;;5096655;28;20032;-73
2021/12/29 07:43:20;;;;;;;21.70;10.80;;;9.30;99.90;;;;;;5092689;28;20020;-73
2021/12/29 07:45:46;;;;;;;21.03;9.90;;;9.30;99.90;;;;;;5106969;28;20102;-73
2021/12/29 07:48:12;;;;;;;16.93;8.97;;;9.30;99.90;;;;;;5079581;28;20030;-73
2021/12/29 07:50:38;;;;;;;24.87;9.57;;;9.40;99.90;;;;;;5096146;28;20038;-73
2021/12/29 07:53:05;;;;;;;20.53;10.27;;;9.30;99.90;;;;;;5111370;28;20032;-73
2021/12/29 07:55:31;;;;;;;22.77;10.60;;;9.30;99.90;;;;;;5112353;28;20024;-73
2021/12/29 07:57:57;;;;;;;22.20;10.63;;;9.30;99.90;;;;;;5112930;28;20028;-73
2021/12/29 08:00:24;;;;;;;24.63;10.97;;;9.30;99.90;;;;;;5113932;28;20503;-73
2021/12/29 08:02:53;;;;;;;25.93;12.33;;;9.30;99.90;;;;;;5062326;28;20488;-73
2021/12/29 08:05:19;;;;;;;23.20;10.43;;;9.30;99.90;;;;;;5098740;28;20110;-73
2021/12/29 08:07:46;;;;;;;20.10;11.20;;;9.30;99.90;;;;;;5105578;28;20027;-73
2021/12/29 08:10:12;;;;;;;24.00;11.70;;;9.30;99.90;;;;;;5104844;28;20038;-73
2021/12/29 08:12:38;;;;;;;23.77;12.50;;;9.30;99.90;;;;;;5110050;28;20019;-73
2021/12/29 08:15:04;;;;;;;24.10;12.17;;;9.30;99.90;;;;;;5109630;28;20039;-73
2021/12/29 08:17:32;;;;;;;22.77;11.03;;;9.30;99.90;;;;;;5087116;28;20031;-73
2021/12/29 08:19:59;;;;;;;26.23;12.47;;;9.30;99.90;;;;;;5095891;28;20062;-73
2021/12/29 08:22:25;;;;;;;22.73;12.13;;;9.30;99.90;;;;;;5099657;28;20035;-73
2021/12/29 08:24:50;;;;;;;22.00;11.37;;;9.30;99.90;;;;;;5092062;28;20032;-73
2021/12/29 08:27:16;;;;;;;23.03;11.70;;;9.40;99.90;;;;;;5092202;28;20085;-73
2021/12/29 08:29:42;;;;;;;20.23;11.20;;;9.30;99.90;;;;;;5101778;28;20038;-73
2021/12/29 08:32:09;;;;;;;27.53;11.47;;;9.30;99.90;;;;;;5091743;28;20502;-73
2021/12/29 08:34:34;;;;;;;21.77;11.40;;;9.40;99.90;;;;;;5107096;28;20051;-73
2021/12/29 08:37:00;;;;;;;21.50;11.40;;;9.40;99.90;;;;;;5094921;28;20028;-73
2021/12/29 08:39:26;;;;;;;18.10;10.60;;;9.40;99.90;;;;;;5102031;28;20085;-73
2021/12/29 08:41:52;;;;;;;22.67;12.10;;;9.40;99.90;;;;;;5092345;28;20032;-73
2021/12/29 08:44:18;;;;;;;22.40;10.87;;;9.40;99.90;;;;;;5092460;28;20071;-73
2021/12/29 08:46:45;;;;;;;18.93;10.97;;;9.40;99.90;;;;;;5075324;28;20032;-73
2021/12/29 08:49:10;;;;;;;23.23;11.80;;;9.50;99.90;;;;;;5093094;28;20039;-74
2021/12/29 08:51:36;;;;;;;22.93;10.80;;;9.50;99.90;;;;;;5092133;28;20085;-73
2021/12/29 08:54:02;;;;;;;21.50;11.33;;;9.50;99.90;;;;;;5092140;28;20095;-73
2021/12/29 08:56:28;;;;;;;19.57;12.00;;;9.50;99.90;;;;;;5092162;28;20056;-73
2021/12/29 08:58:54;;;;;;;23.80;12.10;;;9.50;99.90;;;;;;5093242;28;20392;-73
2021/12/29 09:01:23;;;;;;;25.43;12.73;;;9.50;99.90;;;;;;5093347;28;20024;-73
2021/12/29 09:03:49;;;;;;;25.10;12.60;;;9.50;99.90;;;;;;5093366;28;20043;-73
2021/12/29 09:06:15;;;;;;;27.30;13.40;;;9.50;99.90;;;;;;5093185;28;20035;-73
2021/12/29 09:08:41;;;;;;;31.37;13.97;;;9.50;99.90;;;;;;5093019;28;20032;-73
2021/12/29 09:11:08;;;;;;;28.93;13.53;;;9.50;99.90;;;;;;5093016;28;20032;-73
2021/12/29 09:13:34;;;;;;;25.50;13.67;;;9.50;99.90;;;;;;5093201;28;20103;-73
2021/12/29 09:16:00;;;;;;;28.63;13.70;;;9.50;99.90;;;;;;5093137;28;20032;-73
2021/12/29 09:18:28;;;;;;;24.10;13.57;;;9.50;99.90;;;;;;5091930;28;20349;-74
2021/12/29 09:20:56;;;;;;;24.70;13.47;;;9.50;99.90;;;;;;5093435;28;20131;-73
2021/12/29 09:23:22;;;;;;;24.90;12.13;;;9.50;99.90;;;;;;5096236;28;20032;-73
2021/12/29 09:25:48;;;;;;;25.03;13.27;;;9.50;99.90;;;;;;5095652;28;20035;-73
2021/12/29 09:28:17;;;;;;;22.93;13.07;;;9.50;99.90;;;;;;5097215;28;20080;-73
2021/12/29 09:30:46;;;;;;;23.47;12.93;;;9.50;99.90;;;;;;5095459;28;20073;-73
2021/12/29 09:33:13;;;;;;;22.23;12.43;;;9.60;99.90;;;;;;5097060;28;20050;-73
2021/12/29 09:35:39;;;;;;;24.87;13.17;;;9.60;99.90;;;;;;5096830;28;20039;-73
2021/12/29 09:38:07;;;;;;;27.40;13.40;;;9.60;99.90;;;;;;5097176;28;20028;-73
2021/12/29 09:40:34;;;;;;;21.93;12.03;;;9.60;99.90;;;;;;5097153;28;20028;-73
2021/12/29 09:42:59;;;;;;;22.13;11.63;;;9.70;99.90;;;;;;5097016;28;20099;-73
2021/12/29 09:45:25;;;;;;;22.27;11.67;;;9.70;99.90;;;;;;5095459;28;20109;-73
2021/12/29 09:47:51;;;;;;;17.17;11.17;;;9.70;99.90;;;;;;5096587;28;20036;-73
2021/12/29 09:50:19;;;;;;;26.23;14.07;;;9.70;99.90;;;;;;5096743;28;20029;-73
2021/12/29 09:52:44;;;;;;;21.53;10.83;;;9.60;99.90;;;;;;5095461;28;20099;-73
2021/12/29 09:55:13;;;;;;;21.93;12.20;;;9.70;99.90;;;;;;5078296;28;20119;-73
2021/12/29 09:57:47;;;;;;;19.00;11.07;;;9.70;99.90;;;;;;5109749;28;20027;-73
2021/12/29 10:00:29;;;;;;;20.77;11.40;;;9.70;99.90;;;;;;5115100;28;20016;-73
2021/12/29 10:02:58;;;;;;;22.33;11.97;;;9.70;99.90;;;;;;5112242;28;20119;-73
2021/12/29 10:05:26;;;;;;;21.57;12.47;;;9.70;99.90;;;;;;5095255;28;20384;-73
2021/12/29 10:08:08;;;;;;;21.50;11.63;;;9.70;99.90;;;;;;5096308;28;20090;-73
2021/12/29 10:10:36;;;;;;;23.83;11.53;;;9.80;99.90;;;;;;5102765;28;20111;-74
2021/12/29 10:13:03;;;;;;;20.70;10.83;;;9.80;99.90;;;;;;5116599;28;20031;-73
2021/12/29 10:15:36;;;;;;;23.90;11.23;;;9.90;99.90;;;;;;5115648;28;20422;-73
2021/12/29 10:18:14;;;;;;;18.97;10.70;;;9.80;99.90;;;;;;5116622;28;20020;-74
2021/12/29 10:20:49;;;;;;;20.20;11.10;;;9.90;99.90;;;;;;5115056;28;20034;-73
2021/12/29 10:23:19;;;;;;;21.87;11.37;;;9.90;99.90;;;;;;5116289;28;20035;-74
2021/12/29 10:25:44;;;;;;;24.17;11.97;;;9.90;99.90;;;;;;5115166;28;20020;-73
2021/12/29 10:28:21;;;;;;;20.93;11.63;;;9.90;99.90;;;;;;5116246;27;20055;-73
2021/12/29 10:30:58;;;;;;;21.60;12.13;;;10.00;99.90;;;;;;5116177;28;20122;-73
2021/12/29 10:33:24;;;;;;;20.83;11.33;;;10.00;99.90;;;;;;5115423;28;20476;-73
2021/12/29 10:35:49;;;;;;;20.60;11.13;;;10.00;99.90;;;;;;5115838;28;20089;-73
2021/12/29 10:38:21;;;;;;;17.17;11.43;;;10.00;99.90;;;;;;5114991;28;20367;-74
2021/12/29 10:40:48;;;;;;;22.07;11.30;;;10.10;99.90;;;;;;5116303;28;20062;-73
2021/12/29 10:43:15;;;;;;;20.47;10.67;;;10.00;99.90;;;;;;5116162;28;20068;-73
2021/12/29 10:45:46;;;;;;;20.00;10.83;;;10.10;99.90;;;;;;5115782;28;20157;-73
2021/12/29 10:48:23;;;;;;;23.03;10.07;;;10.10;99.90;;;;;;5116129;28;20117;-73
2021/12/29 10:51:07;;;;;;;15.60;9.83;;;10.20;99.90;;;;;;5114470;28;20444;-73
2021/12/29 10:53:36;;;;;;;16.93;9.57;;;10.20;99.90;;;;;;5115871;28;20020;-73
2021/12/29 10:56:02;;;;;;;18.80;10.27;;;10.30;99.90;;;;;;5115965;28;20019;-73
2021/12/29 10:58:32;;;;;;;18.30;10.27;;;10.30;99.90;;;;;;5097625;28;20100;-74
2021/12/29 11:01:08;;;;;;;18.17;10.27;;;10.30;99.90;;;;;;5115601;28;20019;-73
2021/12/29 11:03:41;;;;;;;16.27;10.10;;;10.30;99.90;;;;;;5113942;28;20272;-75
2021/12/29 11:06:12;;;;;;;16.20;9.20;;;10.30;99.90;;;;;;5114272;28;20024;-77
2021/12/29 11:08:54;;;;;;;14.63;9.03;;;10.30;99.90;;;;;;5102669;28;20383;-77
2021/12/29 11:11:26;;;;;;;16.02;9.10;;;10.30;99.90;;;;;;5101861;28;20046;-76
2021/12/29 11:13:56;;;;;;;19.65;10.68;;;10.40;99.90;;;;;;5100413;28;20028;-77
2021/12/29 11:16:22;;;;;;;20.17;10.43;;;10.40;99.90;;;;;;5103760;28;20020;-76
2021/12/29 11:18:51;;;;;;;14.80;9.53;;;10.40;99.90;;;;;;5114081;28;20502;-77
2021/12/29 11:21:23;;;;;;;15.82;9.90;;;10.40;99.90;;;;;;5106730;28;20022;-76
2021/12/29 11:23:50;;;;;;;15.25;9.75;;;10.40;99.90;;;;;;5106250;28;20031;-77
2021/12/29 11:26:15;;;;;;;14.07;9.30;;;10.40;99.90;;;;;;5106500;28;20024;-77
2021/12/29 11:28:41;;;;;;;15.77;9.33;;;10.40;99.90;;;;;;5114712;28;20042;-77
2021/12/29 11:31:08;;;;;;;15.00;9.13;;;10.40;99.90;;;;;;5114405;28;20024;-77
2021/12/29 11:33:35;;;;;;;17.43;11.90;;;10.40;99.90;;;;;;5103317;28;20047;-77
2021/12/29 11:36:05;;;;;;;18.13;10.70;;;10.50;99.90;;;;;;5099816;28;20502;-77
2021/12/29 11:38:31;;;;;;;16.50;9.53;;;10.40;99.90;;;;;;5097697;28;20024;-77
2021/12/29 11:40:59;;;;;;;20.87;10.43;;;10.40;99.90;;;;;;5114345;28;20058;-77
2021/12/29 11:43:25;;;;;;;14.93;9.73;;;10.40;99.90;;;;;;5112957;28;20027;-77
2021/12/29 11:45:56;;;;;;;16.37;10.03;;;10.40;99.90;;;;;;5112120;28;20107;-77
2021/12/29 11:48:23;;;;;;;13.83;9.70;;;10.40;99.90;;;;;;5114495;28;20019;-77
2021/12/29 11:50:59;;;;;;;17.27;9.70;;;10.40;99.90;;;;;;5112947;28;20043;-77
2021/12/29 11:53:55;;;;;;;12.63;8.43;;;10.40;99.90;;;;;;5114235;28;20094;-77
2021/12/29 11:56:22;;;;;;;17.27;9.18;;;10.40;99.90;;;;;;5113927;28;20023;-77
2021/12/29 11:58:50;;;;;;;15.73;9.87;;;10.40;99.90;;;;;;5113811;28;20076;-77
2021/12/29 12:01:17;;;;;;;14.13;9.43;;;10.30;99.90;;;;;;5109180;28;20466;-77
2021/12/29 12:04:00;;;;;;;13.70;9.57;;;10.30;99.90;;;;;;5112831;28;20020;-77
2021/12/29 12:06:32;;;;;;;15.90;8.50;;;10.40;99.90;;;;;;5105386;28;20047;-77
2021/12/29 12:09:13;;;;;;;17.90;9.70;;;10.40;99.90;;;;;;5113409;28;20281;-77
2021/12/29 12:11:52;;;;;;;13.80;8.90;;;10.40;99.90;;;;;;5099332;28;20055;-77
2021/12/29 12:14:24;;;;;;;14.80;9.40;;;10.40;99.90;;;;;;5106651;28;20089;-77
2021/12/29 12:16:54;;;;;;;14.73;9.73;;;10.40;99.90;;;;;;5105360;28;20020;-77
2021/12/29 12:19:25;;;;;;;14.43;8.80;;;10.40;99.90;;;;;;5113070;28;20028;-77
2021/12/29 12:22:19;;;;;;;14.87;9.57;;;10.40;99.90;;;;;;5104163;28;20020;-77
2021/12/29 12:24:51;;;;;;;16.80;10.10;;;10.40;99.90;;;;;;5110650;28;20028;-77
2021/12/29 12:27:32;;;;;;;14.77;8.70;;;10.40;99.90;;;;;;5109049;28;20024;-77
2021/12/29 12:30:11;;;;;;;14.37;8.57;;;10.40;99.90;;;;;;5103332;28;20372;-77
2021/12/29 12:32:48;;;;;;;13.97;8.10;;;10.40;99.90;;;;;;5096747;28;20403;-77
2021/12/29 12:35:27;;;;;;;14.53;8.23;;;10.40;99.90;;;;;;5097576;28;20016;-77
2021/12/29 12:37:53;;;;;;;14.13;8.33;;;10.50;99.90;;;;;;5113766;28;20076;-77
2021/12/29 12:40:31;;;;;;;14.63;8.83;;;10.40;99.90;;;;;;5113652;28;20672;-76
2021/12/29 12:43:13;;;;;;;13.93;8.43;;;10.40;99.90;;;;;;5096586;28;20020;-77
2021/12/29 12:45:51;;;;;;;13.70;8.37;;;10.50;99.90;;;;;;5113819;28;20026;-76
2021/12/29 12:48:19;;;;;;;17.70;9.13;;;10.40;99.90;;;;;;5112426;28;20032;-76
2021/12/29 12:50:46;;;;;;;16.03;9.10;;;10.50;99.90;;;;;;5113709;28;20020;-77
2021/12/29 12:53:16;;;;;;;15.00;8.77;;;10.50;99.90;;;;;;5113305;28;20175;-77